sensor_id;sensor_type;location;lat;lon;timestamp;P1;durP1;ratioP1;P2;durP2;ratioP2
13411;SDS011;6777;51.474;7.218;2022-07-29T00:00:09;1.50;;;1.40;;
13411;SDS011;6777;51.474;7.218;2022-07-29T00:02:38;2.80;;;1.50;;
13411;SDS011;6777;51.474;7.218;2022-07-29T00:05:05;1.57;;;1.47;;
13411;SDS011;6777;51.474;7.218;2022-07-29T00:07:34;1.47;;;1.30;;
13411;SDS011;6777;51.474;7.218;2022-07-29T00:10:03;4.80;;;1.60;;
13411;SDS011;6777;51.474;7.218;2022-07-29T00:12:31;1.83;;;1.43;;
13411;SDS011;6777;51.474;7.218;2022-07-29T00:14:58;2.00;;;1.40;;
13411;SDS011;6777;51.474;7.218;2022-07-29T00:17:26;1.90;;;1.47;;
13411;SDS011;6777;51.474;7.218;2022-07-29T00:19:53;2.17;;;1.13;;
13411;SDS011;6777;51.474;7.218;2022-07-29T00:22:20;1.93;;;1.37;;
13411;SDS011;6777;51.474;7.218;2022-07-29T00:24:47;1.83;;;1.00;;
13411;SDS011;6777;51.474;7.218;2022-07-29T00:27:16;1.10;;;1.00;;
13411;SDS011;6777;51.474;7.218;2022-07-29T00:29:44;1.80;;;1.13;;
13411;SDS011;6777;51.474;7.218;2022-07-29T00:32:11;1.87;;;1.40;;
13411;SDS011;6777;51.474;7.218;2022-07-29T00:34:38;1.83;;;1.40;;
13411;SDS011;6777;51.474;7.218;2022-07-29T00:37:32;1.30;;;1.20;;
13411;SDS011;6777;51.474;7.218;2022-07-29T00:39:59;1.30;;;1.20;;
13411;SDS011;6777;51.474;7.218;2022-07-29T00:42:27;1.40;;;1.17;;
13411;SDS011;6777;51.474;7.218;2022-07-29T00:44:54;2.50;;;1.20;;
13411;SDS011;6777;51.474;7.218;2022-07-29T00:47:21;1.73;;;1.30;;
13411;SDS011;6777;51.474;7.218;2022-07-29T00:49:48;2.77;;;1.30;;
13411;SDS011;6777;51.474;7.218;2022-07-29T00:52:15;1.13;;;1.03;;
13411;SDS011;6777;51.474;7.218;2022-07-29T00:54:42;1.27;;;1.17;;
13411;SDS011;6777;51.474;7.218;2022-07-29T00:57:10;1.30;;;1.20;;
13411;SDS011;6777;51.474;7.218;2022-07-29T00:59:40;1.07;;;0.93;;
13411;SDS011;6777;51.474;7.218;2022-07-29T01:02:07;2.63;;;1.23;;
13411;SDS011;6777;51.474;7.218;2022-07-29T01:04:34;3.63;;;1.07;;
13411;SDS011;6777;51.474;7.218;2022-07-29T01:07:01;1.57;;;1.30;;
13411;SDS011;6777;51.474;7.218;2022-07-29T01:09:29;1.37;;;1.20;;
13411;SDS011;6777;51.474;7.218;2022-07-29T01:11:57;2.43;;;1.30;;
13411;SDS011;6777;51.474;7.218;2022-07-29T01:14:26;1.07;;;1.07;;
13411;SDS011;6777;51.474;7.218;2022-07-29T01:16:57;1.70;;;0.90;;
13411;SDS011;6777;51.474;7.218;2022-07-29T01:19:33;1.57;;;1.20;;
13411;SDS011;6777;51.474;7.218;2022-07-29T01:22:18;1.10;;;1.00;;
13411;SDS011;6777;51.474;7.218;2022-07-29T01:25:02;1.17;;;1.07;;
13411;SDS011;6777;51.474;7.218;2022-07-29T01:27:50;1.10;;;0.97;;
13411;SDS011;6777;51.474;7.218;2022-07-29T01:30:36;1.90;;;1.17;;
13411;SDS011;6777;51.474;7.218;2022-07-29T01:33:07;1.43;;;1.10;;
13411;SDS011;6777;51.474;7.218;2022-07-29T01:35:58;1.10;;;0.93;;
13411;SDS011;6777;51.474;7.218;2022-07-29T01:38:28;3.33;;;1.20;;
13411;SDS011;6777;51.474;7.218;2022-07-29T01:40:58;2.63;;;1.37;;
13411;SDS011;6777;51.474;7.218;2022-07-29T01:43:32;1.93;;;1.20;;
13411;SDS011;6777;51.474;7.218;2022-07-29T01:46:09;1.97;;;1.27;;
13411;SDS011;6777;51.474;7.218;2022-07-29T01:48:42;2.07;;;1.30;;
13411;SDS011;6777;51.474;7.218;2022-07-29T01:51:14;1.17;;;1.00;;
13411;SDS011;6777;51.474;7.218;2022-07-29T01:53:46;1.23;;;1.13;;
13411;SDS011;6777;51.474;7.218;2022-07-29T01:56:26;1.20;;;1.00;;
13411;SDS011;6777;51.474;7.218;2022-07-29T01:58:57;1.43;;;1.27;;
13411;SDS011;6777;51.474;7.218;2022-07-29T02:01:27;2.50;;;1.20;;
13411;SDS011;6777;51.474;7.218;2022-07-29T02:03:56;1.27;;;1.00;;
13411;SDS011;6777;51.474;7.218;2022-07-29T02:06:24;1.30;;;1.17;;
13411;SDS011;6777;51.474;7.218;2022-07-29T02:08:52;1.10;;;1.07;;
13411;SDS011;6777;51.474;7.218;2022-07-29T02:11:22;2.60;;;1.13;;
13411;SDS011;6777;51.474;7.218;2022-07-29T02:13:50;1.27;;;1.10;;
13411;SDS011;6777;51.474;7.218;2022-07-29T02:16:19;1.57;;;0.93;;
13411;SDS011;6777;51.474;7.218;2022-07-29T02:18:50;1.30;;;0.80;;
13411;SDS011;6777;51.474;7.218;2022-07-29T02:21:21;1.20;;;1.10;;
13411;SDS011;6777;51.474;7.218;2022-07-29T02:23:52;1.07;;;0.97;;
13411;SDS011;6777;51.474;7.218;2022-07-29T02:26:20;1.40;;;0.90;;
13411;SDS011;6777;51.474;7.218;2022-07-29T02:28:52;1.67;;;1.13;;
13411;SDS011;6777;51.474;7.218;2022-07-29T02:31:24;1.97;;;1.10;;
13411;SDS011;6777;51.474;7.218;2022-07-29T02:33:56;1.43;;;1.10;;
13411;SDS011;6777;51.474;7.218;2022-07-29T02:36:24;1.20;;;1.10;;
13411;SDS011;6777;51.474;7.218;2022-07-29T02:38:53;1.20;;;1.10;;
13411;SDS011;6777;51.474;7.218;2022-07-29T02:41:27;1.70;;;1.10;;
13411;SDS011;6777;51.474;7.218;2022-07-29T02:43:58;1.60;;;1.20;;
13411;SDS011;6777;51.474;7.218;2022-07-29T02:46:33;2.47;;;1.20;;
13411;SDS011;6777;51.474;7.218;2022-07-29T02:49:07;1.30;;;1.00;;
13411;SDS011;6777;51.474;7.218;2022-07-29T02:51:41;1.20;;;1.10;;
13411;SDS011;6777;51.474;7.218;2022-07-29T02:54:14;1.93;;;1.20;;
13411;SDS011;6777;51.474;7.218;2022-07-29T02:56:57;2.50;;;1.10;;
13411;SDS011;6777;51.474;7.218;2022-07-29T02:59:28;0.97;;;0.97;;
13411;SDS011;6777;51.474;7.218;2022-07-29T03:01:59;2.87;;;1.33;;
13411;SDS011;6777;51.474;7.218;2022-07-29T03:04:29;2.67;;;1.30;;
13411;SDS011;6777;51.474;7.218;2022-07-29T03:06:58;1.80;;;1.17;;
13411;SDS011;6777;51.474;7.218;2022-07-29T03:09:26;1.53;;;1.10;;
13411;SDS011;6777;51.474;7.218;2022-07-29T03:11:55;1.10;;;0.93;;
13411;SDS011;6777;51.474;7.218;2022-07-29T03:14:23;3.00;;;1.37;;
13411;SDS011;6777;51.474;7.218;2022-07-29T03:16:51;2.47;;;1.27;;
13411;SDS011;6777;51.474;7.218;2022-07-29T03:19:19;2.00;;;1.37;;
13411;SDS011;6777;51.474;7.218;2022-07-29T03:21:48;1.00;;;1.00;;
13411;SDS011;6777;51.474;7.218;2022-07-29T03:24:28;1.90;;;1.50;;
13411;SDS011;6777;51.474;7.218;2022-07-29T03:26:57;1.40;;;1.10;;
13411;SDS011;6777;51.474;7.218;2022-07-29T03:29:26;2.33;;;1.30;;
13411;SDS011;6777;51.474;7.218;2022-07-29T03:31:53;1.40;;;1.10;;
13411;SDS011;6777;51.474;7.218;2022-07-29T03:34:21;1.20;;;1.10;;
13411;SDS011;6777;51.474;7.218;2022-07-29T03:36:49;2.37;;;1.60;;
13411;SDS011;6777;51.474;7.218;2022-07-29T03:39:17;1.20;;;1.10;;
13411;SDS011;6777;51.474;7.218;2022-07-29T03:41:49;2.63;;;1.20;;
13411;SDS011;6777;51.474;7.218;2022-07-29T03:44:22;1.10;;;1.00;;
13411;SDS011;6777;51.474;7.218;2022-07-29T03:46:52;1.43;;;1.10;;
13411;SDS011;6777;51.474;7.218;2022-07-29T03:49:22;2.83;;;1.17;;
13411;SDS011;6777;51.474;7.218;2022-07-29T03:51:52;1.20;;;1.10;;
13411;SDS011;6777;51.474;7.218;2022-07-29T03:54:19;1.83;;;1.13;;
13411;SDS011;6777;51.474;7.218;2022-07-29T03:56:46;3.20;;;1.20;;
13411;SDS011;6777;51.474;7.218;2022-07-29T03:59:17;1.83;;;0.97;;
13411;SDS011;6777;51.474;7.218;2022-07-29T04:01:46;1.27;;;1.17;;
13411;SDS011;6777;51.474;7.218;2022-07-29T04:04:14;2.17;;;1.40;;
13411;SDS011;6777;51.474;7.218;2022-07-29T04:06:42;1.00;;;1.00;;
13411;SDS011;6777;51.474;7.218;2022-07-29T04:09:13;1.67;;;1.00;;
13411;SDS011;6777;51.474;7.218;2022-07-29T04:11:40;1.27;;;1.10;;
13411;SDS011;6777;51.474;7.218;2022-07-29T04:14:08;2.40;;;1.23;;
13411;SDS011;6777;51.474;7.218;2022-07-29T04:16:35;2.67;;;1.30;;
13411;SDS011;6777;51.474;7.218;2022-07-29T04:19:02;2.40;;;1.00;;
13411;SDS011;6777;51.474;7.218;2022-07-29T04:21:29;2.93;;;1.17;;
13411;SDS011;6777;51.474;7.218;2022-07-29T04:23:56;1.77;;;1.20;;
13411;SDS011;6777;51.474;7.218;2022-07-29T04:26:25;2.00;;;1.30;;
13411;SDS011;6777;51.474;7.218;2022-07-29T04:28:52;0.90;;;0.90;;
13411;SDS011;6777;51.474;7.218;2022-07-29T04:31:19;1.00;;;0.93;;
13411;SDS011;6777;51.474;7.218;2022-07-29T04:33:46;1.40;;;1.13;;
13411;SDS011;6777;51.474;7.218;2022-07-29T04:36:13;1.60;;;0.97;;
13411;SDS011;6777;51.474;7.218;2022-07-29T04:38:40;1.23;;;1.13;;
13411;SDS011;6777;51.474;7.218;2022-07-29T04:41:07;2.43;;;1.10;;
13411;SDS011;6777;51.474;7.218;2022-07-29T04:43:36;1.77;;;1.20;;
13411;SDS011;6777;51.474;7.218;2022-07-29T04:46:03;1.30;;;1.17;;
13411;SDS011;6777;51.474;7.218;2022-07-29T04:48:32;2.53;;;1.30;;
13411;SDS011;6777;51.474;7.218;2022-07-29T04:51:00;2.17;;;1.40;;
13411;SDS011;6777;51.474;7.218;2022-07-29T04:53:27;2.23;;;1.33;;
13411;SDS011;6777;51.474;7.218;2022-07-29T04:55:55;1.70;;;1.33;;
13411;SDS011;6777;51.474;7.218;2022-07-29T04:58:22;2.03;;;1.00;;
13411;SDS011;6777;51.474;7.218;2022-07-29T05:00:50;2.13;;;1.30;;
13411;SDS011;6777;51.474;7.218;2022-07-29T05:03:17;1.60;;;1.23;;
13411;SDS011;6777;51.474;7.218;2022-07-29T05:05:45;1.53;;;1.10;;
13411;SDS011;6777;51.474;7.218;2022-07-29T05:08:12;1.93;;;1.37;;
13411;SDS011;6777;51.474;7.218;2022-07-29T05:10:39;1.63;;;1.20;;
13411;SDS011;6777;51.474;7.218;2022-07-29T05:13:06;1.30;;;1.20;;
13411;SDS011;6777;51.474;7.218;2022-07-29T05:15:34;1.30;;;1.17;;
13411;SDS011;6777;51.474;7.218;2022-07-29T05:18:03;1.50;;;1.40;;
13411;SDS011;6777;51.474;7.218;2022-07-29T05:20:31;1.57;;;1.40;;
13411;SDS011;6777;51.474;7.218;2022-07-29T05:23:00;1.73;;;1.30;;
13411;SDS011;6777;51.474;7.218;2022-07-29T05:25:28;1.60;;;1.40;;
13411;SDS011;6777;51.474;7.218;2022-07-29T05:27:56;1.97;;;1.40;;
13411;SDS011;6777;51.474;7.218;2022-07-29T05:30:24;3.40;;;1.10;;
13411;SDS011;6777;51.474;7.218;2022-07-29T05:32:51;1.77;;;1.07;;
13411;SDS011;6777;51.474;7.218;2022-07-29T05:35:19;1.23;;;1.13;;
13411;SDS011;6777;51.474;7.218;2022-07-29T05:37:47;1.50;;;1.40;;
13411;SDS011;6777;51.474;7.218;2022-07-29T05:40:14;1.43;;;1.20;;
13411;SDS011;6777;51.474;7.218;2022-07-29T05:42:42;2.20;;;1.60;;
13411;SDS011;6777;51.474;7.218;2022-07-29T05:45:09;2.73;;;1.50;;
13411;SDS011;6777;51.474;7.218;2022-07-29T05:47:37;2.60;;;1.50;;
13411;SDS011;6777;51.474;7.218;2022-07-29T05:50:04;1.63;;;1.20;;
13411;SDS011;6777;51.474;7.218;2022-07-29T05:52:34;1.43;;;1.33;;
13411;SDS011;6777;51.474;7.218;2022-07-29T05:55:01;1.97;;;1.10;;
13411;SDS011;6777;51.474;7.218;2022-07-29T05:57:30;5.00;;;1.27;;
13411;SDS011;6777;51.474;7.218;2022-07-29T05:59:58;3.97;;;1.57;;
13411;SDS011;6777;51.474;7.218;2022-07-29T06:02:25;3.20;;;1.43;;
13411;SDS011;6777;51.474;7.218;2022-07-29T06:04:52;1.37;;;1.27;;
13411;SDS011;6777;51.474;7.218;2022-07-29T06:07:19;3.20;;;1.20;;
13411;SDS011;6777;51.474;7.218;2022-07-29T06:09:48;1.97;;;1.40;;
13411;SDS011;6777;51.474;7.218;2022-07-29T06:12:15;1.47;;;1.30;;
13411;SDS011;6777;51.474;7.218;2022-07-29T06:14:42;1.33;;;1.17;;
13411;SDS011;6777;51.474;7.218;2022-07-29T06:17:09;2.30;;;1.47;;
13411;SDS011;6777;51.474;7.218;2022-07-29T06:19:36;1.73;;;1.40;;
13411;SDS011;6777;51.474;7.218;2022-07-29T06:22:04;1.33;;;1.20;;
13411;SDS011;6777;51.474;7.218;2022-07-29T06:24:31;2.17;;;1.50;;
13411;SDS011;6777;51.474;7.218;2022-07-29T06:26:59;2.23;;;1.23;;
13411;SDS011;6777;51.474;7.218;2022-07-29T06:29:26;2.97;;;1.30;;
13411;SDS011;6777;51.474;7.218;2022-07-29T06:31:54;1.93;;;1.50;;
13411;SDS011;6777;51.474;7.218;2022-07-29T06:34:21;2.00;;;1.30;;
13411;SDS011;6777;51.474;7.218;2022-07-29T06:36:48;2.67;;;1.43;;
13411;SDS011;6777;51.474;7.218;2022-07-29T06:39:15;2.10;;;1.37;;
13411;SDS011;6777;51.474;7.218;2022-07-29T06:41:46;1.70;;;1.30;;
13411;SDS011;6777;51.474;7.218;2022-07-29T06:44:15;4.17;;;1.37;;
13411;SDS011;6777;51.474;7.218;2022-07-29T06:46:43;1.57;;;1.20;;
13411;SDS011;6777;51.474;7.218;2022-07-29T06:49:12;1.40;;;1.30;;
13411;SDS011;6777;51.474;7.218;2022-07-29T06:51:39;1.83;;;1.30;;
13411;SDS011;6777;51.474;7.218;2022-07-29T06:54:06;1.47;;;1.30;;
13411;SDS011;6777;51.474;7.218;2022-07-29T06:56:34;2.07;;;1.40;;
13411;SDS011;6777;51.474;7.218;2022-07-29T06:59:02;2.60;;;1.40;;
13411;SDS011;6777;51.474;7.218;2022-07-29T07:01:31;1.57;;;1.23;;
13411;SDS011;6777;51.474;7.218;2022-07-29T07:03:58;1.47;;;1.20;;
13411;SDS011;6777;51.474;7.218;2022-07-29T07:06:25;1.60;;;1.20;;
13411;SDS011;6777;51.474;7.218;2022-07-29T07:08:52;2.50;;;1.30;;
13411;SDS011;6777;51.474;7.218;2022-07-29T07:11:19;2.27;;;1.40;;
13411;SDS011;6777;51.474;7.218;2022-07-29T07:13:46;2.57;;;1.60;;
13411;SDS011;6777;51.474;7.218;2022-07-29T07:16:13;3.50;;;1.50;;
13411;SDS011;6777;51.474;7.218;2022-07-29T07:18:42;2.20;;;1.40;;
13411;SDS011;6777;51.474;7.218;2022-07-29T07:21:10;4.13;;;1.57;;
13411;SDS011;6777;51.474;7.218;2022-07-29T07:23:37;1.50;;;1.40;;
13411;SDS011;6777;51.474;7.218;2022-07-29T07:26:04;2.83;;;1.40;;
13411;SDS011;6777;51.474;7.218;2022-07-29T07:28:31;2.30;;;1.57;;
13411;SDS011;6777;51.474;7.218;2022-07-29T07:30:59;2.07;;;1.70;;
13411;SDS011;6777;51.474;7.218;2022-07-29T07:33:26;1.60;;;1.50;;
13411;SDS011;6777;51.474;7.218;2022-07-29T07:35:54;2.30;;;1.40;;
13411;SDS011;6777;51.474;7.218;2022-07-29T07:38:21;1.40;;;1.30;;
13411;SDS011;6777;51.474;7.218;2022-07-29T07:40:48;2.80;;;1.40;;
13411;SDS011;6777;51.474;7.218;2022-07-29T07:43:16;1.47;;;1.37;;
13411;SDS011;6777;51.474;7.218;2022-07-29T07:45:43;3.60;;;1.60;;
13411;SDS011;6777;51.474;7.218;2022-07-29T07:48:10;2.67;;;1.50;;
13411;SDS011;6777;51.474;7.218;2022-07-29T07:50:37;2.57;;;1.50;;
13411;SDS011;6777;51.474;7.218;2022-07-29T07:53:05;1.77;;;1.63;;
13411;SDS011;6777;51.474;7.218;2022-07-29T07:55:32;2.20;;;1.57;;
13411;SDS011;6777;51.474;7.218;2022-07-29T07:57:59;2.50;;;1.70;;
13411;SDS011;6777;51.474;7.218;2022-07-29T08:00:27;1.67;;;1.57;;
13411;SDS011;6777;51.474;7.218;2022-07-29T08:02:54;4.30;;;1.80;;
13411;SDS011;6777;51.474;7.218;2022-07-29T08:05:21;3.53;;;1.47;;
13411;SDS011;6777;51.474;7.218;2022-07-29T08:07:48;2.30;;;1.57;;
13411;SDS011;6777;51.474;7.218;2022-07-29T08:10:17;1.93;;;1.27;;
13411;SDS011;6777;51.474;7.218;2022-07-29T08:12:59;2.03;;;1.50;;
13411;SDS011;6777;51.474;7.218;2022-07-29T08:15:29;1.97;;;1.30;;
13411;SDS011;6777;51.474;7.218;2022-07-29T08:17:56;1.87;;;1.50;;
13411;SDS011;6777;51.474;7.218;2022-07-29T08:20:23;1.60;;;1.30;;
13411;SDS011;6777;51.474;7.218;2022-07-29T08:22:50;1.60;;;1.40;;
13411;SDS011;6777;51.474;7.218;2022-07-29T08:25:20;5.00;;;1.73;;
13411;SDS011;6777;51.474;7.218;2022-07-29T08:27:48;3.23;;;1.70;;
13411;SDS011;6777;51.474;7.218;2022-07-29T08:30:15;2.10;;;1.33;;
13411;SDS011;6777;51.474;7.218;2022-07-29T08:32:42;1.67;;;1.23;;
13411;SDS011;6777;51.474;7.218;2022-07-29T08:35:09;2.90;;;1.43;;
13411;SDS011;6777;51.474;7.218;2022-07-29T08:37:37;2.07;;;1.70;;
13411;SDS011;6777;51.474;7.218;2022-07-29T08:40:04;4.77;;;1.60;;
13411;SDS011;6777;51.474;7.218;2022-07-29T08:42:33;4.03;;;1.73;;
13411;SDS011;6777;51.474;7.218;2022-07-29T08:45:01;2.33;;;1.70;;
13411;SDS011;6777;51.474;7.218;2022-07-29T08:47:30;3.10;;;1.83;;
13411;SDS011;6777;51.474;7.218;2022-07-29T08:49:58;3.03;;;1.77;;
13411;SDS011;6777;51.474;7.218;2022-07-29T08:52:26;4.63;;;2.37;;
13411;SDS011;6777;51.474;7.218;2022-07-29T08:54:54;2.73;;;1.97;;
13411;SDS011;6777;51.474;7.218;2022-07-29T08:57:22;1.97;;;1.50;;
13411;SDS011;6777;51.474;7.218;2022-07-29T08:59:52;2.43;;;1.53;;
13411;SDS011;6777;51.474;7.218;2022-07-29T09:02:21;2.77;;;1.70;;
13411;SDS011;6777;51.474;7.218;2022-07-29T09:04:49;2.40;;;1.50;;
13411;SDS011;6777;51.474;7.218;2022-07-29T09:07:17;1.63;;;1.50;;
13411;SDS011;6777;51.474;7.218;2022-07-29T09:09:44;4.63;;;1.90;;
13411;SDS011;6777;51.474;7.218;2022-07-29T09:12:12;1.60;;;1.50;;
13411;SDS011;6777;51.474;7.218;2022-07-29T09:14:40;3.53;;;1.70;;
13411;SDS011;6777;51.474;7.218;2022-07-29T09:17:09;1.57;;;1.30;;
13411;SDS011;6777;51.474;7.218;2022-07-29T09:19:36;2.50;;;1.73;;
13411;SDS011;6777;51.474;7.218;2022-07-29T09:22:04;2.63;;;1.73;;
13411;SDS011;6777;51.474;7.218;2022-07-29T09:24:41;2.57;;;1.50;;
13411;SDS011;6777;51.474;7.218;2022-07-29T09:27:19;1.43;;;1.33;;
13411;SDS011;6777;51.474;7.218;2022-07-29T09:29:55;2.83;;;1.33;;
13411;SDS011;6777;51.474;7.218;2022-07-29T09:32:25;2.43;;;1.80;;
13411;SDS011;6777;51.474;7.218;2022-07-29T09:37:43;2.10;;;1.63;;
13411;SDS011;6777;51.474;7.218;2022-07-29T09:40:11;3.70;;;2.00;;
13411;SDS011;6777;51.474;7.218;2022-07-29T09:42:41;3.77;;;1.83;;
13411;SDS011;6777;51.474;7.218;2022-07-29T09:45:08;2.30;;;1.90;;
13411;SDS011;6777;51.474;7.218;2022-07-29T09:47:41;5.73;;;2.40;;
13411;SDS011;6777;51.474;7.218;2022-07-29T09:50:12;2.57;;;1.97;;
13411;SDS011;6777;51.474;7.218;2022-07-29T09:52:46;3.83;;;2.20;;
13411;SDS011;6777;51.474;7.218;2022-07-29T09:55:15;2.00;;;1.80;;
13411;SDS011;6777;51.474;7.218;2022-07-29T09:57:43;2.93;;;1.93;;
13411;SDS011;6777;51.474;7.218;2022-07-29T10:00:11;2.27;;;2.07;;
13411;SDS011;6777;51.474;7.218;2022-07-29T10:02:45;9.37;;;3.67;;
13411;SDS011;6777;51.474;7.218;2022-07-29T10:05:18;3.70;;;2.40;;
13411;SDS011;6777;51.474;7.218;2022-07-29T10:07:48;4.00;;;2.00;;
13411;SDS011;6777;51.474;7.218;2022-07-29T10:10:20;3.97;;;2.37;;
13411;SDS011;6777;51.474;7.218;2022-07-29T10:12:51;3.60;;;2.10;;
13411;SDS011;6777;51.474;7.218;2022-07-29T10:15:23;2.87;;;2.10;;
13411;SDS011;6777;51.474;7.218;2022-07-29T10:17:54;3.47;;;2.33;;
13411;SDS011;6777;51.474;7.218;2022-07-29T10:20:24;3.47;;;2.10;;
13411;SDS011;6777;51.474;7.218;2022-07-29T10:22:53;2.10;;;1.90;;
13411;SDS011;6777;51.474;7.218;2022-07-29T10:25:23;2.20;;;2.00;;
13411;SDS011;6777;51.474;7.218;2022-07-29T10:27:51;2.47;;;2.27;;
13411;SDS011;6777;51.474;7.218;2022-07-29T10:30:22;4.03;;;2.40;;
13411;SDS011;6777;51.474;7.218;2022-07-29T10:36:04;4.07;;;2.10;;
13411;SDS011;6777;51.474;7.218;2022-07-29T10:38:58;3.07;;;2.63;;
13411;SDS011;6777;51.474;7.218;2022-07-29T10:41:47;2.30;;;2.10;;
13411;SDS011;6777;51.474;7.218;2022-07-29T10:44:25;2.40;;;2.20;;
13411;SDS011;6777;51.474;7.218;2022-07-29T10:46:53;3.83;;;1.93;;
13411;SDS011;6777;51.474;7.218;2022-07-29T10:49:23;3.43;;;2.07;;
13411;SDS011;6777;51.474;7.218;2022-07-29T10:51:56;2.27;;;2.00;;
13411;SDS011;6777;51.474;7.218;2022-07-29T10:54:37;2.30;;;2.10;;
13411;SDS011;6777;51.474;7.218;2022-07-29T10:57:11;2.33;;;2.13;;
13411;SDS011;6777;51.474;7.218;2022-07-29T10:59:48;3.67;;;1.90;;
13411;SDS011;6777;51.474;7.218;2022-07-29T11:05:12;3.33;;;2.10;;
13411;SDS011;6777;51.474;7.218;2022-07-29T11:10:46;2.37;;;1.83;;
13411;SDS011;6777;51.474;7.218;2022-07-29T11:16:13;2.37;;;1.90;;
13411;SDS011;6777;51.474;7.218;2022-07-29T11:21:48;2.33;;;2.00;;
13411;SDS011;6777;51.474;7.218;2022-07-29T11:24:19;1.97;;;1.87;;
13411;SDS011;6777;51.474;7.218;2022-07-29T11:29:50;2.03;;;1.70;;
13411;SDS011;6777;51.474;7.218;2022-07-29T11:32:19;2.17;;;1.97;;
13411;SDS011;6777;51.474;7.218;2022-07-29T11:34:49;2.73;;;2.40;;
13411;SDS011;6777;51.474;7.218;2022-07-29T11:37:39;2.77;;;2.40;;
13411;SDS011;6777;51.474;7.218;2022-07-29T11:40:13;2.83;;;2.63;;
13411;SDS011;6777;51.474;7.218;2022-07-29T11:42:43;4.93;;;3.20;;
13411;SDS011;6777;51.474;7.218;2022-07-29T11:45:16;6.20;;;2.83;;
13411;SDS011;6777;51.474;7.218;2022-07-29T11:47:47;2.83;;;2.33;;
13411;SDS011;6777;51.474;7.218;2022-07-29T11:50:18;2.90;;;2.17;;
13411;SDS011;6777;51.474;7.218;2022-07-29T11:52:59;1.97;;;1.83;;
13411;SDS011;6777;51.474;7.218;2022-07-29T11:55:28;3.47;;;2.17;;
13411;SDS011;6777;51.474;7.218;2022-07-29T11:57:57;2.43;;;1.90;;
13411;SDS011;6777;51.474;7.218;2022-07-29T12:00:27;3.57;;;2.20;;
13411;SDS011;6777;51.474;7.218;2022-07-29T12:02:57;3.07;;;2.13;;
13411;SDS011;6777;51.474;7.218;2022-07-29T12:05:33;2.40;;;1.93;;
13411;SDS011;6777;51.474;7.218;2022-07-29T12:08:12;2.90;;;1.90;;
13411;SDS011;6777;51.474;7.218;2022-07-29T12:10:41;2.70;;;2.07;;
13411;SDS011;6777;51.474;7.218;2022-07-29T12:13:09;4.63;;;1.90;;
13411;SDS011;6777;51.474;7.218;2022-07-29T12:15:37;4.03;;;3.40;;
13411;SDS011;6777;51.474;7.218;2022-07-29T12:18:11;2.53;;;2.33;;
13411;SDS011;6777;51.474;7.218;2022-07-29T12:20:40;4.33;;;2.20;;
13411;SDS011;6777;51.474;7.218;2022-07-29T12:23:07;2.03;;;1.90;;
13411;SDS011;6777;51.474;7.218;2022-07-29T12:25:39;1.90;;;1.70;;
13411;SDS011;6777;51.474;7.218;2022-07-29T12:28:08;2.33;;;1.90;;
13411;SDS011;6777;51.474;7.218;2022-07-29T12:30:39;1.97;;;1.60;;
13411;SDS011;6777;51.474;7.218;2022-07-29T12:33:12;2.47;;;1.70;;
13411;SDS011;6777;51.474;7.218;2022-07-29T12:35:46;1.97;;;1.77;;
13411;SDS011;6777;51.474;7.218;2022-07-29T12:38:16;3.70;;;1.93;;
13411;SDS011;6777;51.474;7.218;2022-07-29T12:40:45;3.07;;;1.93;;
13411;SDS011;6777;51.474;7.218;2022-07-29T12:43:16;2.93;;;1.70;;
13411;SDS011;6777;51.474;7.218;2022-07-29T12:45:46;2.83;;;1.90;;
13411;SDS011;6777;51.474;7.218;2022-07-29T12:48:15;2.20;;;1.87;;
13411;SDS011;6777;51.474;7.218;2022-07-29T12:50:53;3.00;;;1.93;;
13411;SDS011;6777;51.474;7.218;2022-07-29T12:53:22;3.40;;;1.97;;
13411;SDS011;6777;51.474;7.218;2022-07-29T12:55:54;2.57;;;2.10;;
13411;SDS011;6777;51.474;7.218;2022-07-29T12:58:28;3.70;;;2.60;;
13411;SDS011;6777;51.474;7.218;2022-07-29T13:01:04;2.97;;;2.30;;
13411;SDS011;6777;51.474;7.218;2022-07-29T13:03:46;3.67;;;1.80;;
13411;SDS011;6777;51.474;7.218;2022-07-29T13:06:31;3.17;;;1.90;;
13411;SDS011;6777;51.474;7.218;2022-07-29T13:09:08;4.20;;;1.67;;
13411;SDS011;6777;51.474;7.218;2022-07-29T13:11:41;4.50;;;1.57;;
13411;SDS011;6777;51.474;7.218;2022-07-29T13:14:11;4.43;;;2.07;;
13411;SDS011;6777;51.474;7.218;2022-07-29T13:16:59;3.07;;;2.13;;
13411;SDS011;6777;51.474;7.218;2022-07-29T13:19:33;3.70;;;1.90;;
13411;SDS011;6777;51.474;7.218;2022-07-29T13:22:03;4.33;;;2.60;;
13411;SDS011;6777;51.474;7.218;2022-07-29T13:24:31;3.27;;;2.40;;
13411;SDS011;6777;51.474;7.218;2022-07-29T13:26:59;2.30;;;2.10;;
13411;SDS011;6777;51.474;7.218;2022-07-29T13:29:27;2.83;;;2.47;;
13411;SDS011;6777;51.474;7.218;2022-07-29T13:31:54;2.13;;;1.90;;
13411;SDS011;6777;51.474;7.218;2022-07-29T13:34:21;2.17;;;1.97;;
13411;SDS011;6777;51.474;7.218;2022-07-29T13:36:49;1.80;;;1.67;;
13411;SDS011;6777;51.474;7.218;2022-07-29T13:39:16;2.20;;;1.80;;
13411;SDS011;6777;51.474;7.218;2022-07-29T13:41:44;4.57;;;1.80;;
13411;SDS011;6777;51.474;7.218;2022-07-29T13:44:12;4.77;;;3.30;;
13411;SDS011;6777;51.474;7.218;2022-07-29T13:46:39;2.40;;;2.20;;
13411;SDS011;6777;51.474;7.218;2022-07-29T13:49:06;2.97;;;2.00;;
13411;SDS011;6777;51.474;7.218;2022-07-29T13:51:33;3.63;;;1.73;;
13411;SDS011;6777;51.474;7.218;2022-07-29T13:54:00;2.13;;;1.70;;
13411;SDS011;6777;51.474;7.218;2022-07-29T13:56:27;2.13;;;1.87;;
13411;SDS011;6777;51.474;7.218;2022-07-29T13:58:54;4.77;;;1.90;;
13411;SDS011;6777;51.474;7.218;2022-07-29T14:01:23;3.07;;;2.00;;
13411;SDS011;6777;51.474;7.218;2022-07-29T14:03:51;2.27;;;1.97;;
13411;SDS011;6777;51.474;7.218;2022-07-29T14:06:18;1.60;;;1.50;;
13411;SDS011;6777;51.474;7.218;2022-07-29T14:08:45;2.50;;;2.20;;
13411;SDS011;6777;51.474;7.218;2022-07-29T14:11:12;4.13;;;2.10;;
13411;SDS011;6777;51.474;7.218;2022-07-29T14:13:39;3.30;;;1.70;;
13411;SDS011;6777;51.474;7.218;2022-07-29T14:16:06;2.40;;;1.87;;
13411;SDS011;6777;51.474;7.218;2022-07-29T14:18:34;2.93;;;1.83;;
13411;SDS011;6777;51.474;7.218;2022-07-29T14:21:01;4.33;;;1.93;;
13411;SDS011;6777;51.474;7.218;2022-07-29T14:23:29;1.83;;;1.73;;
13411;SDS011;6777;51.474;7.218;2022-07-29T14:25:56;4.23;;;2.07;;
13411;SDS011;6777;51.474;7.218;2022-07-29T14:28:23;5.27;;;2.27;;
13411;SDS011;6777;51.474;7.218;2022-07-29T14:30:50;2.87;;;1.90;;
13411;SDS011;6777;51.474;7.218;2022-07-29T14:33:17;2.47;;;1.90;;
13411;SDS011;6777;51.474;7.218;2022-07-29T14:35:46;1.60;;;1.50;;
13411;SDS011;6777;51.474;7.218;2022-07-29T14:38:13;1.83;;;1.60;;
13411;SDS011;6777;51.474;7.218;2022-07-29T14:40:40;3.63;;;1.63;;
13411;SDS011;6777;51.474;7.218;2022-07-29T14:43:07;4.50;;;2.13;;
13411;SDS011;6777;51.474;7.218;2022-07-29T14:45:34;2.70;;;2.10;;
13411;SDS011;6777;51.474;7.218;2022-07-29T14:48:01;2.00;;;1.70;;
13411;SDS011;6777;51.474;7.218;2022-07-29T14:50:29;2.83;;;1.77;;
13411;SDS011;6777;51.474;7.218;2022-07-29T14:52:57;2.67;;;2.33;;
13411;SDS011;6777;51.474;7.218;2022-07-29T14:55:24;2.77;;;2.27;;
13411;SDS011;6777;51.474;7.218;2022-07-29T14:57:52;2.63;;;1.80;;
13411;SDS011;6777;51.474;7.218;2022-07-29T15:00:20;2.97;;;2.23;;
13411;SDS011;6777;51.474;7.218;2022-07-29T15:02:48;2.07;;;1.90;;
13411;SDS011;6777;51.474;7.218;2022-07-29T15:05:15;3.10;;;1.80;;
13411;SDS011;6777;51.474;7.218;2022-07-29T15:07:42;2.10;;;1.93;;
13411;SDS011;6777;51.474;7.218;2022-07-29T15:10:10;3.63;;;2.00;;
13411;SDS011;6777;51.474;7.218;2022-07-29T15:12:37;1.90;;;1.80;;
13411;SDS011;6777;51.474;7.218;2022-07-29T15:15:05;1.73;;;1.63;;
13411;SDS011;6777;51.474;7.218;2022-07-29T15:17:33;1.70;;;1.50;;
13411;SDS011;6777;51.474;7.218;2022-07-29T15:20:01;3.50;;;2.00;;
13411;SDS011;6777;51.474;7.218;2022-07-29T15:22:29;1.80;;;1.70;;
13411;SDS011;6777;51.474;7.218;2022-07-29T15:24:56;2.37;;;1.70;;
13411;SDS011;6777;51.474;7.218;2022-07-29T15:27:25;2.03;;;1.80;;
13411;SDS011;6777;51.474;7.218;2022-07-29T15:29:52;2.07;;;1.53;;
13411;SDS011;6777;51.474;7.218;2022-07-29T15:32:19;3.20;;;1.57;;
13411;SDS011;6777;51.474;7.218;2022-07-29T15:34:46;2.50;;;1.93;;